createdAt,value
2023-03-29T00:00:27.629Z,4.30
2023-03-29T00:03:14.920Z,4.10
2023-03-29T00:06:04.523Z,4.00
2023-03-29T00:08:54.141Z,4.00
2023-03-29T00:11:41.285Z,4.00
2023-03-29T00:14:28.952Z,4.00
2023-03-29T00:17:16.495Z,4.00
2023-03-29T00:20:05.492Z,4.00
2023-03-29T00:22:53.848Z,4.00
2023-03-29T00:25:45.975Z,3.90
2023-03-29T00:28:32.824Z,3.90
2023-03-29T00:31:20.314Z,3.90
2023-03-29T00:34:07.423Z,4.00
2023-03-29T00:36:57.921Z,4.10
2023-03-29T00:39:46.863Z,4.20
2023-03-29T00:42:33.941Z,4.30
2023-03-29T00:45:23.436Z,4.30
2023-03-29T00:48:13.528Z,4.40
2023-03-29T00:51:04.821Z,4.20
2023-03-29T00:53:57.317Z,4.20
2023-03-29T00:56:48.149Z,4.10
2023-03-29T00:59:36.697Z,4.30
2023-03-29T01:02:26.191Z,4.40
2023-03-29T01:05:16.115Z,4.40
2023-03-29T01:08:06.707Z,4.50
2023-03-29T01:10:58.897Z,4.60
2023-03-29T01:13:55.413Z,4.60
2023-03-29T01:16:42.648Z,4.60
2023-03-29T01:19:34.029Z,4.50
2023-03-29T01:22:29.907Z,4.40
2023-03-29T01:25:26.266Z,4.30
2023-03-29T01:28:18.418Z,4.60
2023-03-29T01:31:09.979Z,4.60
2023-03-29T01:34:03.449Z,4.70
2023-03-29T01:36:58.756Z,4.80
2023-03-29T01:39:46.888Z,4.90
2023-03-29T01:42:43.795Z,5.10
2023-03-29T01:45:37.825Z,5.10
2023-03-29T01:48:29.808Z,5.60
2023-03-29T01:51:21.027Z,5.60
2023-03-29T01:54:10.543Z,5.70
2023-03-29T01:56:59.464Z,5.80
2023-03-29T01:59:48.472Z,6.10
2023-03-29T02:02:39.707Z,6.20
2023-03-29T02:05:29.610Z,6.30
2023-03-29T02:08:18.704Z,6.40
2023-03-29T02:11:06.217Z,6.70
2023-03-29T02:13:53.076Z,6.80
2023-03-29T02:16:40.984Z,7.00
2023-03-29T02:19:29.235Z,7.20
2023-03-29T02:22:17.712Z,7.30
2023-03-29T02:25:08.415Z,7.30
2023-03-29T02:27:56.034Z,7.30
2023-03-29T02:30:53.539Z,7.40
2023-03-29T02:33:45.850Z,7.50
2023-03-29T02:36:41.526Z,7.50
2023-03-29T02:39:30.142Z,7.50
2023-03-29T02:42:20.519Z,7.50
2023-03-29T02:45:10.443Z,7.60
2023-03-29T02:48:00.023Z,7.50
2023-03-29T02:50:49.643Z,7.50
2023-03-29T02:53:42.414Z,7.70
2023-03-29T02:56:29.162Z,7.80
2023-03-29T02:59:19.407Z,7.80
2023-03-29T03:02:06.796Z,7.80
2023-03-29T03:04:53.650Z,7.80
2023-03-29T03:07:40.636Z,7.70
2023-03-29T03:10:29.363Z,7.80
2023-03-29T03:13:16.613Z,7.80
2023-03-29T03:16:03.460Z,7.90
2023-03-29T03:18:51.366Z,7.90
2023-03-29T03:21:39.254Z,7.80
2023-03-29T03:24:28.028Z,7.90
2023-03-29T03:27:16.535Z,7.80
2023-03-29T03:30:05.354Z,7.80
2023-03-29T03:32:52.248Z,7.80
2023-03-29T03:35:39.752Z,7.80
2023-03-29T03:38:26.690Z,7.80
2023-03-29T03:41:13.321Z,7.90
2023-03-29T03:44:01.794Z,7.80
2023-03-29T03:46:48.659Z,7.80
2023-03-29T03:49:35.502Z,7.90
2023-03-29T03:52:22.224Z,7.90
2023-03-29T03:55:09.601Z,7.80
2023-03-29T03:57:56.503Z,7.80
2023-03-29T04:00:46.247Z,7.80
2023-03-29T04:03:33.643Z,7.80
2023-03-29T04:06:20.771Z,7.90
2023-03-29T04:09:09.289Z,7.90
2023-03-29T04:11:56.832Z,7.90
2023-03-29T04:14:44.015Z,7.80
2023-03-29T04:17:32.191Z,7.70
2023-03-29T04:20:19.722Z,7.60
2023-03-29T04:23:06.934Z,7.60
2023-03-29T04:25:56.268Z,7.60
2023-03-29T04:28:43.321Z,7.60
2023-03-29T04:31:30.543Z,7.70
2023-03-29T04:34:19.127Z,7.60
2023-03-29T04:37:10.286Z,7.60
2023-03-29T04:39:57.352Z,7.70
2023-03-29T04:42:45.980Z,7.70
2023-03-29T04:45:33.274Z,7.70
2023-03-29T04:48:20.797Z,7.70
2023-03-29T04:51:09.481Z,7.70
2023-03-29T04:53:56.190Z,7.70
2023-03-29T04:56:43.654Z,7.70
2023-03-29T04:59:30.667Z,7.70
2023-03-29T05:02:17.667Z,7.70
2023-03-29T05:05:05.080Z,7.70
2023-03-29T05:07:53.242Z,7.70
2023-03-29T05:10:44.399Z,7.70
2023-03-29T05:13:31.552Z,7.70
2023-03-29T05:16:18.685Z,7.70
2023-03-29T05:19:05.659Z,7.60
2023-03-29T05:21:53.226Z,7.60
2023-03-29T05:24:42.154Z,7.60
2023-03-29T05:27:29.803Z,7.60
2023-03-29T05:30:17.158Z,7.60
2023-03-29T05:33:05.850Z,7.60
2023-03-29T05:36:00.864Z,7.70
2023-03-29T05:38:48.112Z,7.70
2023-03-29T05:41:36.281Z,7.70
2023-03-29T05:44:23.143Z,7.80
2023-03-29T05:47:10.071Z,7.80
2023-03-29T05:49:57.343Z,7.80
2023-03-29T05:52:44.830Z,7.80
2023-03-29T05:55:31.681Z,7.80
2023-03-29T05:58:20.330Z,7.80
2023-03-29T06:01:12.586Z,7.90
2023-03-29T06:03:59.636Z,7.90
2023-03-29T06:06:46.483Z,8.00
2023-03-29T06:09:33.775Z,8.00
2023-03-29T06:12:22.014Z,8.00
2023-03-29T06:15:11.047Z,8.00
2023-03-29T06:17:58.197Z,8.10
2023-03-29T06:20:45.150Z,8.10
2023-03-29T06:23:32.751Z,8.20
2023-03-29T06:26:20.856Z,8.20
2023-03-29T06:29:08.537Z,8.30
2023-03-29T06:31:57.148Z,8.40
2023-03-29T06:34:44.266Z,8.40
2023-03-29T06:37:31.995Z,8.60
2023-03-29T06:40:21.350Z,8.70
2023-03-29T06:43:08.549Z,8.70
2023-03-29T06:45:56.313Z,8.80
2023-03-29T06:48:45.093Z,8.80
2023-03-29T06:51:32.035Z,8.80
2023-03-29T06:54:18.816Z,8.90
2023-03-29T06:57:07.984Z,9.00
2023-03-29T06:59:55.184Z,9.00
2023-03-29T07:02:42.335Z,9.10
2023-03-29T07:05:31.726Z,9.10
2023-03-29T07:08:18.885Z,9.20
2023-03-29T07:11:07.123Z,9.20
2023-03-29T07:13:54.105Z,9.30
2023-03-29T07:16:40.875Z,9.40
2023-03-29T07:19:30.259Z,9.40
2023-03-29T07:22:18.603Z,9.40
2023-03-29T07:25:06.113Z,9.50
2023-03-29T07:27:53.123Z,9.50
2023-03-29T07:30:40.034Z,9.60
2023-03-29T07:33:27.093Z,9.40
2023-03-29T07:36:15.794Z,9.50
2023-03-29T07:39:04.296Z,9.60
2023-03-29T07:41:50.925Z,9.80
2023-03-29T07:44:37.902Z,9.80
2023-03-29T07:47:25.301Z,9.80
2023-03-29T07:50:13.565Z,9.70
2023-03-29T07:53:00.946Z,9.60
2023-03-29T07:55:50.140Z,9.70
2023-03-29T07:58:37.703Z,9.70
2023-03-29T08:01:24.849Z,9.80
2023-03-29T08:04:15.247Z,9.90
2023-03-29T08:07:02.074Z,10.00
2023-03-29T08:09:49.383Z,10.00
2023-03-29T08:12:37.735Z,10.10
2023-03-29T08:15:25.061Z,10.20
2023-03-29T08:18:11.851Z,10.20
2023-03-29T08:20:58.637Z,10.40
2023-03-29T08:23:45.632Z,10.60
2023-03-29T08:26:32.255Z,10.80
2023-03-29T08:29:20.728Z,11.20
2023-03-29T08:32:07.755Z,11.50
2023-03-29T08:34:55.153Z,11.60
2023-03-29T08:37:42.214Z,11.50
2023-03-29T08:40:31.251Z,11.80
2023-03-29T08:43:53.245Z,11.90
2023-03-29T08:46:49.293Z,12.20
2023-03-29T08:49:38.034Z,12.20
2023-03-29T08:52:32.304Z,12.40
2023-03-29T08:55:28.031Z,12.50
2023-03-29T08:58:19.112Z,12.10
2023-03-29T09:01:08.780Z,12.20
2023-03-29T09:04:04.993Z,12.20
2023-03-29T09:06:52.466Z,12.20
2023-03-29T09:09:40.000Z,12.20
2023-03-29T09:12:39.220Z,12.10
2023-03-29T09:15:29.953Z,12.00
2023-03-29T09:18:27.611Z,11.90
2023-03-29T09:21:23.394Z,11.90
2023-03-29T09:24:22.168Z,11.50
2023-03-29T09:27:12.103Z,11.50
2023-03-29T09:30:15.346Z,11.50
2023-03-29T09:33:07.732Z,11.50
2023-03-29T09:36:00.195Z,11.40
2023-03-29T09:38:54.177Z,11.40
2023-03-29T09:41:46.681Z,11.40
2023-03-29T09:44:38.176Z,11.10
2023-03-29T09:47:28.170Z,11.30
2023-03-29T09:50:30.346Z,11.30
2023-03-29T09:53:20.108Z,11.30
2023-03-29T09:56:09.448Z,11.50
2023-03-29T09:58:56.948Z,11.70
2023-03-29T10:01:46.015Z,11.50
2023-03-29T10:04:32.881Z,11.70
2023-03-29T10:07:21.207Z,11.80
2023-03-29T10:10:10.522Z,11.80
2023-03-29T10:13:02.571Z,11.80
2023-03-29T10:15:59.754Z,11.90
2023-03-29T10:18:47.444Z,11.90
2023-03-29T10:21:34.274Z,11.80
2023-03-29T10:24:22.293Z,11.80
2023-03-29T10:27:12.773Z,11.90
2023-03-29T10:30:02.326Z,11.80
2023-03-29T10:32:56.667Z,11.90
2023-03-29T10:35:43.997Z,11.80
2023-03-29T10:38:32.079Z,11.90
2023-03-29T10:41:21.804Z,12.00
2023-03-29T10:44:29.352Z,11.80
2023-03-29T10:47:21.771Z,11.80
2023-03-29T10:50:16.590Z,11.90
2023-03-29T10:53:05.650Z,12.00
2023-03-29T10:56:02.251Z,12.40
2023-03-29T10:59:04.502Z,12.50
2023-03-29T11:02:19.411Z,12.60
2023-03-29T11:05:20.382Z,13.00
2023-03-29T11:08:24.782Z,12.70
2023-03-29T11:11:24.307Z,12.80
2023-03-29T11:14:23.113Z,12.90
2023-03-29T11:17:24.301Z,13.00
2023-03-29T11:20:23.374Z,13.10
2023-03-29T11:23:24.188Z,13.30
2023-03-29T11:26:18.296Z,13.30
2023-03-29T11:29:11.903Z,13.30
2023-03-29T11:32:07.392Z,13.20
2023-03-29T11:35:04.343Z,13.40
2023-03-29T11:37:59.022Z,13.40
2023-03-29T11:40:54.428Z,13.60
2023-03-29T11:43:44.636Z,13.20
2023-03-29T11:46:34.854Z,13.40
2023-03-29T11:49:27.391Z,13.70
2023-03-29T11:52:19.057Z,13.70
2023-03-29T11:55:13.336Z,14.00
2023-03-29T11:58:03.443Z,14.20
2023-03-29T12:00:55.485Z,14.30
2023-03-29T12:03:47.634Z,14.60
2023-03-29T12:06:39.805Z,14.90
2023-03-29T12:09:34.221Z,14.90
2023-03-29T12:12:27.863Z,15.50
2023-03-29T12:15:20.448Z,15.90
2023-03-29T12:18:17.713Z,15.80
2023-03-29T12:21:08.440Z,16.10
2023-03-29T12:23:55.414Z,16.70
2023-03-29T12:27:17.198Z,16.60
2023-03-29T12:30:34.403Z,17.60
2023-03-29T12:33:59.765Z,18.20
2023-03-29T12:37:32.199Z,18.80
2023-03-29T12:40:20.932Z,18.70
2023-03-29T12:43:10.653Z,18.00
2023-03-29T12:46:06.367Z,18.50
2023-03-29T12:48:58.264Z,18.40
2023-03-29T12:51:45.499Z,17.80
2023-03-29T12:54:34.150Z,18.70
2023-03-29T12:57:23.448Z,18.50
2023-03-29T13:00:22.048Z,18.50
2023-03-29T13:03:23.332Z,19.10
2023-03-29T13:06:13.137Z,18.90
2023-03-29T13:09:02.870Z,18.80
2023-03-29T13:11:54.699Z,18.60
2023-03-29T13:14:44.930Z,18.50
2023-03-29T13:17:40.656Z,18.40
2023-03-29T13:20:41.446Z,18.90
2023-03-29T13:23:40.778Z,18.60
2023-03-29T13:26:43.129Z,18.60
2023-03-29T13:29:54.940Z,19.00
2023-03-29T13:32:52.741Z,18.70
2023-03-29T13:35:52.597Z,18.70
2023-03-29T13:38:48.723Z,19.00
2023-03-29T13:41:47.778Z,18.50
2023-03-29T13:44:44.457Z,18.20
2023-03-29T13:47:48.839Z,17.90
2023-03-29T13:50:57.064Z,17.90
2023-03-29T13:53:50.862Z,17.60
2023-03-29T13:56:43.300Z,17.80
2023-03-29T13:59:37.961Z,17.90
2023-03-29T14:02:33.706Z,17.80
2023-03-29T14:05:25.482Z,17.00
2023-03-29T14:08:21.942Z,17.10
2023-03-29T14:11:24.311Z,17.00
2023-03-29T14:14:12.443Z,17.20
2023-03-29T14:17:01.603Z,17.20
2023-03-29T14:19:50.032Z,16.90
2023-03-29T14:22:37.420Z,16.80
2023-03-29T14:25:25.969Z,16.60
2023-03-29T14:28:23.833Z,16.80
2023-03-29T14:31:19.020Z,16.90
2023-03-29T14:34:08.300Z,16.90
2023-03-29T14:36:55.331Z,17.20
2023-03-29T14:39:42.596Z,17.40
2023-03-29T14:42:31.184Z,17.40
2023-03-29T14:45:19.752Z,17.30
2023-03-29T14:48:07.485Z,17.10
2023-03-29T14:50:54.857Z,16.80
2023-03-29T14:53:42.816Z,16.80
2023-03-29T14:56:32.833Z,16.40
2023-03-29T14:59:27.944Z,16.50
2023-03-29T15:02:25.863Z,16.70
2023-03-29T15:05:26.326Z,16.70
2023-03-29T15:08:16.746Z,16.50
2023-03-29T15:11:04.254Z,16.30
2023-03-29T15:13:56.828Z,16.10
2023-03-29T15:16:47.530Z,16.10
2023-03-29T15:19:34.767Z,16.20
2023-03-29T15:22:21.709Z,16.20
2023-03-29T15:25:17.481Z,16.10
2023-03-29T15:28:05.414Z,16.10
2023-03-29T15:31:06.784Z,16.10
2023-03-29T15:34:07.635Z,16.10
2023-03-29T15:36:57.756Z,16.00
2023-03-29T15:39:45.514Z,15.80
2023-03-29T15:42:32.060Z,15.70
2023-03-29T15:45:19.943Z,15.70
2023-03-29T15:48:15.583Z,15.50
2023-03-29T15:51:06.510Z,15.40
2023-03-29T15:53:54.314Z,15.50
2023-03-29T15:56:47.214Z,15.50
2023-03-29T15:59:35.121Z,15.60
2023-03-29T16:02:28.102Z,15.50
2023-03-29T16:05:15.696Z,15.30
2023-03-29T16:08:04.266Z,14.90
2023-03-29T16:10:51.710Z,14.90
2023-03-29T16:13:39.048Z,15.00
2023-03-29T16:16:26.510Z,14.70
2023-03-29T16:19:13.363Z,14.60
2023-03-29T16:22:02.244Z,14.60
2023-03-29T16:24:51.561Z,14.60
2023-03-29T16:27:38.532Z,14.60
2023-03-29T16:30:25.901Z,14.50
2023-03-29T16:33:13.335Z,14.40
2023-03-29T16:36:01.326Z,14.30
2023-03-29T16:38:49.155Z,14.30
2023-03-29T16:41:37.921Z,14.30
2023-03-29T16:45:06.716Z,14.30
2023-03-29T16:47:54.606Z,14.20
2023-03-29T16:50:45.340Z,14.10
2023-03-29T16:53:32.502Z,14.10
2023-03-29T16:56:20.071Z,14.10
2023-03-29T16:59:09.237Z,14.00
2023-03-29T17:01:56.608Z,14.00
2023-03-29T17:04:43.782Z,13.90
2023-03-29T17:07:32.491Z,13.90
2023-03-29T17:10:19.880Z,13.90
2023-03-29T17:13:08.197Z,13.50
2023-03-29T17:15:58.451Z,13.30
2023-03-29T17:18:46.061Z,13.20
2023-03-29T17:21:33.127Z,13.20
2023-03-29T17:24:23.406Z,13.20
2023-03-29T17:27:10.877Z,13.20
2023-03-29T17:29:57.793Z,13.20
2023-03-29T17:32:46.677Z,13.10
2023-03-29T17:35:35.645Z,12.90
2023-03-29T17:38:22.699Z,12.80
2023-03-29T17:41:10.014Z,12.70
2023-03-29T17:43:56.810Z,12.40
2023-03-29T17:46:43.799Z,12.40
2023-03-29T17:49:32.123Z,12.30
2023-03-29T17:52:19.381Z,12.20
2023-03-29T17:55:11.031Z,12.20
2023-03-29T17:57:58.311Z,12.10
2023-03-29T18:00:45.435Z,12.00
2023-03-29T18:03:32.792Z,12.00
2023-03-29T18:06:21.537Z,11.90
2023-03-29T18:09:10.216Z,11.90
2023-03-29T18:11:57.557Z,11.20
2023-03-29T18:14:44.696Z,11.20
2023-03-29T18:17:31.990Z,11.10
2023-03-29T18:20:20.588Z,11.40
2023-03-29T18:23:11.525Z,11.40
2023-03-29T18:26:02.897Z,11.50
2023-03-29T18:28:51.034Z,11.50
2023-03-29T18:31:41.569Z,11.30
2023-03-29T18:34:31.601Z,10.80
2023-03-29T18:37:19.710Z,10.60
2023-03-29T18:40:13.771Z,10.50
2023-03-29T18:45:52.800Z,10.70
2023-03-29T18:48:39.849Z,10.70
2023-03-29T18:51:28.225Z,10.80
2023-03-29T18:54:15.373Z,10.90
2023-03-29T18:57:07.125Z,11.00
2023-03-29T18:59:54.298Z,11.00
2023-03-29T19:02:41.519Z,10.90
2023-03-29T19:05:28.920Z,10.80
2023-03-29T19:08:15.708Z,10.90
2023-03-29T19:11:03.324Z,10.90
2023-03-29T19:13:52.378Z,10.90
2023-03-29T19:16:40.907Z,10.90
2023-03-29T19:19:29.363Z,10.90
2023-03-29T19:22:16.666Z,11.10
2023-03-29T19:25:04.638Z,11.10
2023-03-29T19:27:51.554Z,11.10
2023-03-29T19:30:39.758Z,11.20
2023-03-29T19:33:26.769Z,11.10
2023-03-29T19:36:13.756Z,11.20
2023-03-29T19:39:01.049Z,11.10
2023-03-29T19:41:48.339Z,11.00
2023-03-29T19:44:38.160Z,11.00
2023-03-29T19:47:27.146Z,10.90
2023-03-29T19:50:14.346Z,10.80
2023-03-29T19:53:01.625Z,10.80
2023-03-29T19:55:49.503Z,10.80
2023-03-29T19:58:37.510Z,10.70
2023-03-29T20:01:27.104Z,10.70
2023-03-29T20:04:16.684Z,10.70
2023-03-29T20:07:04.096Z,10.70
2023-03-29T20:09:50.705Z,10.70
2023-03-29T20:12:37.452Z,10.60
2023-03-29T20:15:26.059Z,10.50
2023-03-29T20:18:13.396Z,10.40
2023-03-29T20:21:03.850Z,10.40
2023-03-29T20:23:51.321Z,10.20
2023-03-29T20:26:38.671Z,10.10
2023-03-29T20:29:25.949Z,10.00
2023-03-29T20:32:12.929Z,9.90
2023-03-29T20:35:00.182Z,9.90
2023-03-29T20:37:48.570Z,9.90
2023-03-29T20:40:37.191Z,9.80
2023-03-29T20:43:24.395Z,9.70
2023-03-29T20:46:18.437Z,9.60
2023-03-29T20:49:08.989Z,9.60
2023-03-29T20:51:58.767Z,9.60
2023-03-29T20:54:47.684Z,9.60
2023-03-29T20:57:35.959Z,9.60
2023-03-29T21:00:23.903Z,9.60
2023-03-29T21:03:11.475Z,9.60
2023-03-29T21:05:58.372Z,9.60
2023-03-29T21:08:45.334Z,9.70
2023-03-29T21:11:33.861Z,9.70
2023-03-29T21:14:21.274Z,9.70
2023-03-29T21:17:09.330Z,9.70
2023-03-29T21:19:56.466Z,9.60
2023-03-29T21:22:44.080Z,9.60
2023-03-29T21:25:30.742Z,9.60
2023-03-29T21:28:18.899Z,9.60
2023-03-29T21:31:06.741Z,9.60
2023-03-29T21:33:56.262Z,9.60
2023-03-29T21:36:43.488Z,9.60
2023-03-29T21:39:30.444Z,9.60
2023-03-29T21:42:17.951Z,9.50
2023-03-29T21:45:06.874Z,9.50
2023-03-29T21:47:53.911Z,9.40
2023-03-29T21:50:40.997Z,9.40
2023-03-29T21:53:28.004Z,9.40
2023-03-29T21:56:14.658Z,9.40
2023-03-29T21:59:01.411Z,9.40
2023-03-29T22:01:49.800Z,9.40
2023-03-29T22:04:37.704Z,9.50
2023-03-29T22:07:26.521Z,9.50
2023-03-29T22:10:14.262Z,9.50
2023-03-29T22:13:01.564Z,9.60
2023-03-29T22:15:49.860Z,9.60
2023-03-29T22:18:46.930Z,9.60
2023-03-29T22:21:33.846Z,9.60
2023-03-29T22:24:20.771Z,9.60
2023-03-29T22:27:08.467Z,9.60
2023-03-29T22:29:55.588Z,9.60
2023-03-29T22:32:42.384Z,9.60
2023-03-29T22:35:30.671Z,9.70
2023-03-29T22:38:17.841Z,9.70
2023-03-29T22:41:05.056Z,9.60
2023-03-29T22:43:53.432Z,9.70
2023-03-29T22:46:40.260Z,9.70
2023-03-29T22:49:27.674Z,9.70
2023-03-29T22:52:15.478Z,9.70
2023-03-29T22:55:02.461Z,9.70
2023-03-29T22:57:49.506Z,9.70
2023-03-29T23:00:36.119Z,9.70
2023-03-29T23:03:23.875Z,9.70
2023-03-29T23:06:11.084Z,9.70
2023-03-29T23:08:59.724Z,9.70
2023-03-29T23:11:46.350Z,9.70
2023-03-29T23:14:35.511Z,9.70
2023-03-29T23:17:22.454Z,9.70
2023-03-29T23:20:11.311Z,9.90
2023-03-29T23:22:58.201Z,9.90
2023-03-29T23:25:47.544Z,10.10
2023-03-29T23:28:34.877Z,10.00
2023-03-29T23:31:23.932Z,10.00
2023-03-29T23:34:10.954Z,10.00
2023-03-29T23:36:58.015Z,9.90
2023-03-29T23:39:44.868Z,10.00
2023-03-29T23:42:33.187Z,10.00
2023-03-29T23:45:20.332Z,10.00
2023-03-29T23:48:07.672Z,9.90
2023-03-29T23:50:56.975Z,9.90
2023-03-29T23:53:43.651Z,9.80
2023-03-29T23:56:30.195Z,9.80
2023-03-29T23:59:18.460Z,9.90
